Airfield :
LOGIN :

Register | Disclaimer

   EN    FR    IT 

 










Legend :    VFR   Marginal VFR   IFR   Intensive IFR   Very Intensive IFR
Visi :
Ceiling :
>= 8 km
>= 3000ft
5 to 8 km
1000 to 3000 ft
1500m to 5 km
500 to 1000 ft
800 to 1500m
200 to 500 ft
< 800m
< 200 ft
Symbols :   Thunderstorms  Fog  Heavy snow  Heavy precipitations  Wind > 20 kt
SIGMETs :     Misc.  Thunderstorms  Icing  Turbulence  Mountain Waves  Volcanic Ashes






- Airport Elevation : 355 ft
- IATA code : VBS


LIPO - Montichiari - Brescia

CURRENT METAR :
  • 241120Z AUTO 05011KT 9999 FEW053/// 12/06 Q1007

EXPIRED METARs :
  • 241050Z AUTO 05012KT 9999 FEW055/// 11/05 Q1007
  • 241020Z AUTO 05013KT 9999 NCD 11/05 Q1007
  • 240950Z AUTO 04012KT 9999 NCD 11/05 Q1007
  • 240920Z AUTO 05012KT 9999 NCD 10/05 Q1007
  • 240850Z AUTO 04010KT 9999 NCD 10/05 Q1007
  • 240820Z AUTO 05009KT 9999 NCD 09/05 Q1006
  • 240750Z AUTO 04011KT 9999 NCD 08/05 Q1006
  • 240720Z AUTO 03011KT 9999 NCD 07/04 Q1005
  • 240650Z AUTO 03011KT 9999 NCD 07/04 Q1005

TAF TAF LIPO
Valid from the 24 at 12:00 until the 25 at 12:00 UTC


241100Z 2412/2512 05012KT 9999 SCT030
TEMPO 2414/2421 4000 TSRA
BECMG 2416/2418 VRB05KT



MET'MAP, your aeronautical weather chart ! - Copyright ORBIFLY December 2007 - Disclaimer

ORBIFLY MET'MAP TEAM :

Programming & Development : Alexandra Zaïnal
Original concept : Baudouin d'Aumeries
Technical & hardware support : Manuel Goepfert
Assistance : Marc-Olivier Méhu




SOURCES & CREDITS :

   NOAA